Terminal Aerodrome Forecast
Issued by NWS Shreveport, LA

Home | Current Version | Previous Version | Text Only | Print | Product List | Glossary On
Versions: 1 2 3 4 5 6 7 8 9 10 11 12 13 14 15 16 17 18 19 20 21
000
FTUS44 KSHV 242341
TAFGGG
TAF
KGGG 242341Z 2500/2524 18012KT P6SM VCTS SCT025CB OVC035
      TEMPO 2500/2502 5SM -TSRA BR BKN025CB
     FM250300 17012KT P6SM OVC015
     FM251800 16007KT P6SM VCTS SCT015 BKN035CB=

USA.gov is the U.S. government's official web portal to all federal, state and local government web resources and services.